Morada, California
Current Conditions -  °F | °C
As of 7:55 AM on Wednesday 28 Jan 2015 (Local Time) from KSCK Reporting Station
Haze Haze  
Wind Chill: 43°   Ceiling: Unl
Heat Index: 43°   Visibility: 1.2mi
Dew Point: 42°   Wind: 3mph
Humidity: 97%   Direction: 260°W
Pressure: 30.25"   Gusts: NA
Location:  38.0455°N, 121.227°W
Report Text: KSCK 281555Z 26003KT 1 1/4SM BR CLR 06/06 A3025 RMK AO2 SLP242 T00610056
Loading
Personal Weather Stations






























Interactive Weather Map New forecast layout! Learn more

10-Day Weather Forecast

Advertisements
Track Severe Weather on mobile